sensor_id;sensor_type;location;lat;lon;timestamp;P1;durP1;ratioP1;P2;durP2;ratioP2
21036;SDS011;10677;50.942;4.028;2023-06-22T00:02:12;13.00;;;6.05;;
21036;SDS011;10677;50.942;4.028;2023-06-22T00:04:39;9.98;;;5.53;;
21036;SDS011;10677;50.942;4.028;2023-06-22T00:07:04;10.13;;;5.60;;
21036;SDS011;10677;50.942;4.028;2023-06-22T00:09:30;8.85;;;5.57;;
21036;SDS011;10677;50.942;4.028;2023-06-22T00:11:57;10.60;;;6.45;;
21036;SDS011;10677;50.942;4.028;2023-06-22T00:14:23;7.85;;;5.40;;
21036;SDS011;10677;50.942;4.028;2023-06-22T00:16:48;12.57;;;6.22;;
21036;SDS011;10677;50.942;4.028;2023-06-22T00:19:17;8.25;;;5.55;;
21036;SDS011;10677;50.942;4.028;2023-06-22T00:21:44;8.80;;;5.80;;
21036;SDS011;10677;50.942;4.028;2023-06-22T00:24:12;10.10;;;6.05;;
21036;SDS011;10677;50.942;4.028;2023-06-22T00:26:38;10.80;;;5.85;;
21036;SDS011;10677;50.942;4.028;2023-06-22T00:29:04;8.93;;;6.22;;
21036;SDS011;10677;50.942;4.028;2023-06-22T00:31:29;10.35;;;6.32;;
21036;SDS011;10677;50.942;4.028;2023-06-22T00:33:55;9.65;;;6.25;;
21036;SDS011;10677;50.942;4.028;2023-06-22T00:36:21;11.30;;;6.72;;
21036;SDS011;10677;50.942;4.028;2023-06-22T00:38:49;12.07;;;6.65;;
21036;SDS011;10677;50.942;4.028;2023-06-22T00:41:16;9.82;;;6.88;;
21036;SDS011;10677;50.942;4.028;2023-06-22T00:43:42;11.95;;;6.18;;
21036;SDS011;10677;50.942;4.028;2023-06-22T00:46:08;15.93;;;6.70;;
21036;SDS011;10677;50.942;4.028;2023-06-22T00:48:34;11.32;;;6.70;;
21036;SDS011;10677;50.942;4.028;2023-06-22T00:51:02;10.63;;;6.75;;
21036;SDS011;10677;50.942;4.028;2023-06-22T00:53:28;11.27;;;6.93;;
21036;SDS011;10677;50.942;4.028;2023-06-22T00:55:53;9.90;;;6.70;;
21036;SDS011;10677;50.942;4.028;2023-06-22T00:58:20;12.55;;;7.47;;
21036;SDS011;10677;50.942;4.028;2023-06-22T01:00:47;11.18;;;7.15;;
21036;SDS011;10677;50.942;4.028;2023-06-22T01:03:13;11.40;;;7.22;;
21036;SDS011;10677;50.942;4.028;2023-06-22T01:05:41;13.13;;;7.93;;
21036;SDS011;10677;50.942;4.028;2023-06-22T01:11:01;13.48;;;8.25;;
21036;SDS011;10677;50.942;4.028;2023-06-22T01:16:09;15.02;;;8.73;;
21036;SDS011;10677;50.942;4.028;2023-06-22T01:18:35;12.40;;;7.70;;
21036;SDS011;10677;50.942;4.028;2023-06-22T01:21:05;13.68;;;8.20;;
21036;SDS011;10677;50.942;4.028;2023-06-22T01:29:11;12.20;;;7.50;;
21036;SDS011;10677;50.942;4.028;2023-06-22T01:31:39;12.88;;;7.85;;
21036;SDS011;10677;50.942;4.028;2023-06-22T01:34:06;12.55;;;8.88;;
21036;SDS011;10677;50.942;4.028;2023-06-22T01:36:33;15.40;;;7.80;;
21036;SDS011;10677;50.942;4.028;2023-06-22T01:38:59;12.25;;;7.90;;
21036;SDS011;10677;50.942;4.028;2023-06-22T01:41:27;13.60;;;7.82;;
21036;SDS011;10677;50.942;4.028;2023-06-22T01:43:55;13.90;;;8.27;;
21036;SDS011;10677;50.942;4.028;2023-06-22T01:46:21;11.65;;;7.80;;
21036;SDS011;10677;50.942;4.028;2023-06-22T01:48:48;12.88;;;8.32;;
21036;SDS011;10677;50.942;4.028;2023-06-22T01:51:14;20.02;;;7.93;;
21036;SDS011;10677;50.942;4.028;2023-06-22T01:53:40;13.90;;;8.90;;
21036;SDS011;10677;50.942;4.028;2023-06-22T01:56:06;13.73;;;8.18;;
21036;SDS011;10677;50.942;4.028;2023-06-22T01:58:32;10.70;;;7.65;;
21036;SDS011;10677;50.942;4.028;2023-06-22T02:03:36;11.32;;;8.07;;
21036;SDS011;10677;50.942;4.028;2023-06-22T02:06:07;10.75;;;7.13;;
21036;SDS011;10677;50.942;4.028;2023-06-22T02:08:49;10.75;;;7.80;;
21036;SDS011;10677;50.942;4.028;2023-06-22T02:11:21;13.10;;;7.95;;
21036;SDS011;10677;50.942;4.028;2023-06-22T02:13:48;14.77;;;9.18;;
21036;SDS011;10677;50.942;4.028;2023-06-22T02:16:14;13.82;;;8.40;;
21036;SDS011;10677;50.942;4.028;2023-06-22T02:18:48;14.52;;;9.20;;
21036;SDS011;10677;50.942;4.028;2023-06-22T02:21:18;13.55;;;8.95;;
21036;SDS011;10677;50.942;4.028;2023-06-22T02:23:44;13.80;;;8.90;;
21036;SDS011;10677;50.942;4.028;2023-06-22T02:26:10;12.32;;;8.63;;
21036;SDS011;10677;50.942;4.028;2023-06-22T02:28:36;11.77;;;8.48;;
21036;SDS011;10677;50.942;4.028;2023-06-22T02:31:02;13.45;;;8.50;;
21036;SDS011;10677;50.942;4.028;2023-06-22T02:33:28;13.85;;;9.32;;
21036;SDS011;10677;50.942;4.028;2023-06-22T02:35:53;15.63;;;8.80;;
21036;SDS011;10677;50.942;4.028;2023-06-22T02:38:22;18.23;;;9.82;;
21036;SDS011;10677;50.942;4.028;2023-06-22T02:40:49;17.85;;;9.70;;
21036;SDS011;10677;50.942;4.028;2023-06-22T02:43:15;15.02;;;8.70;;
21036;SDS011;10677;50.942;4.028;2023-06-22T02:45:41;14.90;;;9.23;;
21036;SDS011;10677;50.942;4.028;2023-06-22T02:48:07;13.55;;;8.48;;
21036;SDS011;10677;50.942;4.028;2023-06-22T02:50:33;14.60;;;9.57;;
21036;SDS011;10677;50.942;4.028;2023-06-22T02:52:58;15.48;;;10.00;;
21036;SDS011;10677;50.942;4.028;2023-06-22T02:55:24;16.35;;;9.65;;
21036;SDS011;10677;50.942;4.028;2023-06-22T02:57:50;12.98;;;8.85;;
21036;SDS011;10677;50.942;4.028;2023-06-22T03:00:17;15.50;;;9.82;;
21036;SDS011;10677;50.942;4.028;2023-06-22T03:02:45;12.52;;;9.05;;
21036;SDS011;10677;50.942;4.028;2023-06-22T03:05:15;15.18;;;9.85;;
21036;SDS011;10677;50.942;4.028;2023-06-22T03:07:46;16.42;;;9.85;;
21036;SDS011;10677;50.942;4.028;2023-06-22T03:10:12;13.18;;;9.50;;
21036;SDS011;10677;50.942;4.028;2023-06-22T03:12:38;16.67;;;9.82;;
21036;SDS011;10677;50.942;4.028;2023-06-22T03:15:08;13.20;;;9.35;;
21036;SDS011;10677;50.942;4.028;2023-06-22T03:17:35;17.05;;;9.52;;
21036;SDS011;10677;50.942;4.028;2023-06-22T03:20:03;15.98;;;9.68;;
21036;SDS011;10677;50.942;4.028;2023-06-22T03:22:34;16.73;;;9.80;;
21036;SDS011;10677;50.942;4.028;2023-06-22T03:25:01;14.85;;;9.50;;
21036;SDS011;10677;50.942;4.028;2023-06-22T03:27:27;17.17;;;10.52;;
21036;SDS011;10677;50.942;4.028;2023-06-22T03:29:52;16.45;;;10.32;;
21036;SDS011;10677;50.942;4.028;2023-06-22T03:32:18;15.35;;;10.00;;
21036;SDS011;10677;50.942;4.028;2023-06-22T03:34:44;17.08;;;11.07;;
21036;SDS011;10677;50.942;4.028;2023-06-22T03:37:13;16.17;;;9.85;;
21036;SDS011;10677;50.942;4.028;2023-06-22T03:39:39;16.40;;;10.23;;
21036;SDS011;10677;50.942;4.028;2023-06-22T03:42:06;16.50;;;10.65;;
21036;SDS011;10677;50.942;4.028;2023-06-22T03:44:31;17.73;;;10.27;;
21036;SDS011;10677;50.942;4.028;2023-06-22T03:46:57;14.82;;;9.75;;
21036;SDS011;10677;50.942;4.028;2023-06-22T03:49:23;15.30;;;10.02;;
21036;SDS011;10677;50.942;4.028;2023-06-22T03:51:48;14.27;;;9.38;;
21036;SDS011;10677;50.942;4.028;2023-06-22T03:54:14;16.02;;;10.93;;
21036;SDS011;10677;50.942;4.028;2023-06-22T03:56:39;13.02;;;9.90;;
21036;SDS011;10677;50.942;4.028;2023-06-22T03:59:05;15.30;;;10.15;;
21036;SDS011;10677;50.942;4.028;2023-06-22T04:01:31;14.82;;;9.90;;
21036;SDS011;10677;50.942;4.028;2023-06-22T04:03:56;15.80;;;9.35;;
21036;SDS011;10677;50.942;4.028;2023-06-22T04:06:22;17.13;;;9.85;;
21036;SDS011;10677;50.942;4.028;2023-06-22T04:08:48;15.77;;;11.02;;
21036;SDS011;10677;50.942;4.028;2023-06-22T04:11:16;19.30;;;9.43;;
21036;SDS011;10677;50.942;4.028;2023-06-22T04:13:43;13.68;;;10.15;;
21036;SDS011;10677;50.942;4.028;2023-06-22T04:16:08;15.75;;;9.70;;
21036;SDS011;10677;50.942;4.028;2023-06-22T04:18:34;16.52;;;9.52;;
21036;SDS011;10677;50.942;4.028;2023-06-22T04:21:00;15.27;;;8.95;;
21036;SDS011;10677;50.942;4.028;2023-06-22T04:23:26;13.90;;;9.25;;
21036;SDS011;10677;50.942;4.028;2023-06-22T04:25:52;13.52;;;9.10;;
21036;SDS011;10677;50.942;4.028;2023-06-22T04:28:18;13.77;;;9.15;;
21036;SDS011;10677;50.942;4.028;2023-06-22T04:30:43;13.00;;;8.75;;
21036;SDS011;10677;50.942;4.028;2023-06-22T04:33:15;11.88;;;8.50;;
21036;SDS011;10677;50.942;4.028;2023-06-22T04:35:41;13.15;;;8.68;;
21036;SDS011;10677;50.942;4.028;2023-06-22T04:38:07;13.52;;;9.02;;
21036;SDS011;10677;50.942;4.028;2023-06-22T04:40:33;13.68;;;9.02;;
21036;SDS011;10677;50.942;4.028;2023-06-22T04:42:59;15.52;;;8.38;;
21036;SDS011;10677;50.942;4.028;2023-06-22T04:45:27;14.45;;;8.48;;
21036;SDS011;10677;50.942;4.028;2023-06-22T04:47:56;13.35;;;9.10;;
21036;SDS011;10677;50.942;4.028;2023-06-22T04:50:22;17.20;;;9.63;;
21036;SDS011;10677;50.942;4.028;2023-06-22T04:52:48;14.70;;;9.20;;
21036;SDS011;10677;50.942;4.028;2023-06-22T04:55:15;15.15;;;9.85;;
21036;SDS011;10677;50.942;4.028;2023-06-22T04:57:43;13.98;;;8.65;;
21036;SDS011;10677;50.942;4.028;2023-06-22T05:00:22;13.82;;;8.88;;
21036;SDS011;10677;50.942;4.028;2023-06-22T05:02:48;11.95;;;8.45;;
21036;SDS011;10677;50.942;4.028;2023-06-22T05:05:14;14.65;;;8.80;;
21036;SDS011;10677;50.942;4.028;2023-06-22T05:07:44;12.25;;;8.65;;
21036;SDS011;10677;50.942;4.028;2023-06-22T05:10:13;13.07;;;8.65;;
21036;SDS011;10677;50.942;4.028;2023-06-22T05:12:40;11.90;;;8.10;;
21036;SDS011;10677;50.942;4.028;2023-06-22T05:15:09;12.68;;;9.43;;
21036;SDS011;10677;50.942;4.028;2023-06-22T05:17:35;11.65;;;8.43;;
21036;SDS011;10677;50.942;4.028;2023-06-22T05:20:02;13.30;;;8.30;;
21036;SDS011;10677;50.942;4.028;2023-06-22T05:22:31;12.05;;;8.35;;
21036;SDS011;10677;50.942;4.028;2023-06-22T05:24:57;12.70;;;7.70;;
21036;SDS011;10677;50.942;4.028;2023-06-22T05:27:22;17.70;;;8.32;;
21036;SDS011;10677;50.942;4.028;2023-06-22T05:29:48;14.40;;;8.70;;
21036;SDS011;10677;50.942;4.028;2023-06-22T05:32:14;12.55;;;8.38;;
21036;SDS011;10677;50.942;4.028;2023-06-22T05:34:39;14.88;;;8.85;;
21036;SDS011;10677;50.942;4.028;2023-06-22T05:37:05;12.20;;;8.43;;
21036;SDS011;10677;50.942;4.028;2023-06-22T05:39:31;11.98;;;9.25;;
21036;SDS011;10677;50.942;4.028;2023-06-22T05:41:57;14.50;;;8.30;;
21036;SDS011;10677;50.942;4.028;2023-06-22T05:44:22;12.02;;;9.23;;
21036;SDS011;10677;50.942;4.028;2023-06-22T05:46:48;12.57;;;8.73;;
21036;SDS011;10677;50.942;4.028;2023-06-22T05:49:14;12.77;;;8.35;;
21036;SDS011;10677;50.942;4.028;2023-06-22T05:51:40;14.60;;;8.70;;
21036;SDS011;10677;50.942;4.028;2023-06-22T05:54:06;15.68;;;9.18;;
21036;SDS011;10677;50.942;4.028;2023-06-22T05:56:33;15.82;;;9.10;;
21036;SDS011;10677;50.942;4.028;2023-06-22T05:58:59;14.90;;;9.02;;
21036;SDS011;10677;50.942;4.028;2023-06-22T06:01:25;16.98;;;11.18;;
21036;SDS011;10677;50.942;4.028;2023-06-22T06:03:51;19.63;;;11.32;;
21036;SDS011;10677;50.942;4.028;2023-06-22T06:06:18;18.42;;;12.07;;
21036;SDS011;10677;50.942;4.028;2023-06-22T06:08:46;18.42;;;11.75;;
21036;SDS011;10677;50.942;4.028;2023-06-22T06:11:11;21.77;;;14.60;;
21036;SDS011;10677;50.942;4.028;2023-06-22T06:13:37;16.90;;;10.90;;
21036;SDS011;10677;50.942;4.028;2023-06-22T06:16:03;18.88;;;11.93;;
21036;SDS011;10677;50.942;4.028;2023-06-22T06:18:29;16.73;;;12.35;;
21036;SDS011;10677;50.942;4.028;2023-06-22T06:20:54;20.00;;;11.63;;
21036;SDS011;10677;50.942;4.028;2023-06-22T06:23:20;45.65;;;37.35;;
21036;SDS011;10677;50.942;4.028;2023-06-22T06:25:46;16.20;;;12.00;;
21036;SDS011;10677;50.942;4.028;2023-06-22T06:28:11;15.98;;;10.68;;
21036;SDS011;10677;50.942;4.028;2023-06-22T06:30:37;17.67;;;11.30;;
21036;SDS011;10677;50.942;4.028;2023-06-22T06:33:03;17.35;;;10.65;;
21036;SDS011;10677;50.942;4.028;2023-06-22T06:35:36;17.48;;;11.25;;
21036;SDS011;10677;50.942;4.028;2023-06-22T06:38:02;20.48;;;12.10;;
21036;SDS011;10677;50.942;4.028;2023-06-22T06:40:28;16.58;;;10.88;;
21036;SDS011;10677;50.942;4.028;2023-06-22T06:42:54;18.23;;;12.05;;
21036;SDS011;10677;50.942;4.028;2023-06-22T06:45:21;17.35;;;11.80;;
21036;SDS011;10677;50.942;4.028;2023-06-22T06:47:49;19.50;;;11.52;;
21036;SDS011;10677;50.942;4.028;2023-06-22T06:50:16;18.30;;;12.02;;
21036;SDS011;10677;50.942;4.028;2023-06-22T06:52:42;18.70;;;11.52;;
21036;SDS011;10677;50.942;4.028;2023-06-22T06:55:08;18.67;;;11.73;;
21036;SDS011;10677;50.942;4.028;2023-06-22T06:57:39;19.95;;;12.32;;
21036;SDS011;10677;50.942;4.028;2023-06-22T07:00:06;20.42;;;12.60;;
21036;SDS011;10677;50.942;4.028;2023-06-22T07:02:46;17.42;;;12.02;;
21036;SDS011;10677;50.942;4.028;2023-06-22T07:05:13;17.42;;;12.77;;
21036;SDS011;10677;50.942;4.028;2023-06-22T07:07:39;19.45;;;12.73;;
21036;SDS011;10677;50.942;4.028;2023-06-22T07:13:09;16.58;;;12.80;;
21036;SDS011;10677;50.942;4.028;2023-06-22T07:15:35;15.52;;;12.68;;
21036;SDS011;10677;50.942;4.028;2023-06-22T07:18:00;16.15;;;12.35;;
21036;SDS011;10677;50.942;4.028;2023-06-22T07:20:26;19.23;;;14.05;;
21036;SDS011;10677;50.942;4.028;2023-06-22T07:22:52;23.63;;;14.02;;
21036;SDS011;10677;50.942;4.028;2023-06-22T07:25:18;17.67;;;12.52;;
21036;SDS011;10677;50.942;4.028;2023-06-22T07:27:57;18.90;;;13.73;;
21036;SDS011;10677;50.942;4.028;2023-06-22T07:30:28;20.17;;;15.15;;
21036;SDS011;10677;50.942;4.028;2023-06-22T07:32:55;19.52;;;14.00;;
21036;SDS011;10677;50.942;4.028;2023-06-22T07:35:21;18.63;;;13.77;;
21036;SDS011;10677;50.942;4.028;2023-06-22T07:37:47;18.92;;;13.85;;
21036;SDS011;10677;50.942;4.028;2023-06-22T07:40:14;17.00;;;13.82;;
21036;SDS011;10677;50.942;4.028;2023-06-22T07:42:41;16.65;;;13.55;;
21036;SDS011;10677;50.942;4.028;2023-06-22T07:45:07;19.33;;;14.50;;
21036;SDS011;10677;50.942;4.028;2023-06-22T07:47:36;21.30;;;14.68;;
21036;SDS011;10677;50.942;4.028;2023-06-22T07:50:05;21.83;;;15.55;;
21036;SDS011;10677;50.942;4.028;2023-06-22T07:52:31;22.92;;;15.90;;
21036;SDS011;10677;50.942;4.028;2023-06-22T07:54:57;20.02;;;15.35;;
21036;SDS011;10677;50.942;4.028;2023-06-22T07:57:24;21.75;;;16.08;;
21036;SDS011;10677;50.942;4.028;2023-06-22T08:00:07;23.17;;;15.75;;
21036;SDS011;10677;50.942;4.028;2023-06-22T08:02:41;24.60;;;17.23;;
21036;SDS011;10677;50.942;4.028;2023-06-22T08:05:10;22.20;;;16.73;;
21036;SDS011;10677;50.942;4.028;2023-06-22T08:07:37;23.40;;;16.27;;
21036;SDS011;10677;50.942;4.028;2023-06-22T08:10:08;25.55;;;17.58;;
21036;SDS011;10677;50.942;4.028;2023-06-22T08:12:36;26.77;;;17.83;;
21036;SDS011;10677;50.942;4.028;2023-06-22T08:15:01;24.02;;;16.05;;
21036;SDS011;10677;50.942;4.028;2023-06-22T08:17:28;21.95;;;17.15;;
21036;SDS011;10677;50.942;4.028;2023-06-22T08:19:53;23.67;;;16.50;;
21036;SDS011;10677;50.942;4.028;2023-06-22T08:22:19;24.52;;;18.67;;
21036;SDS011;10677;50.942;4.028;2023-06-22T08:24:45;22.08;;;17.00;;
21036;SDS011;10677;50.942;4.028;2023-06-22T08:27:11;25.08;;;17.42;;
21036;SDS011;10677;50.942;4.028;2023-06-22T08:29:38;19.98;;;17.08;;
21036;SDS011;10677;50.942;4.028;2023-06-22T08:32:04;22.75;;;17.50;;
21036;SDS011;10677;50.942;4.028;2023-06-22T08:34:30;29.83;;;18.95;;
21036;SDS011;10677;50.942;4.028;2023-06-22T08:36:56;23.02;;;17.95;;
21036;SDS011;10677;50.942;4.028;2023-06-22T08:39:22;26.17;;;19.00;;
21036;SDS011;10677;50.942;4.028;2023-06-22T08:41:47;26.48;;;19.77;;
21036;SDS011;10677;50.942;4.028;2023-06-22T08:44:17;25.13;;;19.92;;
21036;SDS011;10677;50.942;4.028;2023-06-22T08:46:43;23.25;;;19.27;;
21036;SDS011;10677;50.942;4.028;2023-06-22T08:49:09;29.38;;;21.77;;
21036;SDS011;10677;50.942;4.028;2023-06-22T08:51:35;24.40;;;19.85;;
21036;SDS011;10677;50.942;4.028;2023-06-22T08:54:01;23.75;;;18.75;;
21036;SDS011;10677;50.942;4.028;2023-06-22T08:56:26;27.88;;;18.52;;
21036;SDS011;10677;50.942;4.028;2023-06-22T08:58:52;28.38;;;22.92;;
21036;SDS011;10677;50.942;4.028;2023-06-22T09:01:18;23.80;;;18.23;;
21036;SDS011;10677;50.942;4.028;2023-06-22T09:03:44;26.30;;;19.73;;
21036;SDS011;10677;50.942;4.028;2023-06-22T09:06:19;24.75;;;18.77;;
21036;SDS011;10677;50.942;4.028;2023-06-22T09:08:46;22.80;;;18.60;;
21036;SDS011;10677;50.942;4.028;2023-06-22T09:11:12;23.83;;;19.92;;
21036;SDS011;10677;50.942;4.028;2023-06-22T09:13:38;24.77;;;19.83;;
21036;SDS011;10677;50.942;4.028;2023-06-22T09:16:07;23.88;;;19.33;;
21036;SDS011;10677;50.942;4.028;2023-06-22T09:18:33;27.00;;;19.90;;
21036;SDS011;10677;50.942;4.028;2023-06-22T09:21:01;24.20;;;20.02;;
21036;SDS011;10677;50.942;4.028;2023-06-22T09:23:27;25.50;;;19.48;;
21036;SDS011;10677;50.942;4.028;2023-06-22T09:25:52;28.67;;;20.67;;
21036;SDS011;10677;50.942;4.028;2023-06-22T09:28:18;24.00;;;19.48;;
21036;SDS011;10677;50.942;4.028;2023-06-22T09:30:44;25.35;;;19.20;;
21036;SDS011;10677;50.942;4.028;2023-06-22T09:33:10;25.25;;;19.60;;
21036;SDS011;10677;50.942;4.028;2023-06-22T09:35:36;27.45;;;21.02;;
21036;SDS011;10677;50.942;4.028;2023-06-22T09:38:01;23.38;;;19.65;;
21036;SDS011;10677;50.942;4.028;2023-06-22T09:40:28;25.42;;;19.65;;
21036;SDS011;10677;50.942;4.028;2023-06-22T09:42:54;27.98;;;21.23;;
21036;SDS011;10677;50.942;4.028;2023-06-22T09:45:20;30.02;;;22.20;;
21036;SDS011;10677;50.942;4.028;2023-06-22T09:47:45;26.45;;;22.13;;
21036;SDS011;10677;50.942;4.028;2023-06-22T09:50:11;30.67;;;24.40;;
21036;SDS011;10677;50.942;4.028;2023-06-22T09:52:37;34.03;;;23.88;;
21036;SDS011;10677;50.942;4.028;2023-06-22T09:55:03;36.20;;;24.75;;
21036;SDS011;10677;50.942;4.028;2023-06-22T09:57:32;29.77;;;24.50;;
21036;SDS011;10677;50.942;4.028;2023-06-22T09:59:58;39.30;;;28.20;;
21036;SDS011;10677;50.942;4.028;2023-06-22T10:02:23;39.20;;;29.25;;
21036;SDS011;10677;50.942;4.028;2023-06-22T10:08:12;42.78;;;28.85;;
21036;SDS011;10677;50.942;4.028;2023-06-22T10:10:39;39.67;;;30.75;;
21036;SDS011;10677;50.942;4.028;2023-06-22T10:13:08;47.10;;;33.70;;
21036;SDS011;10677;50.942;4.028;2023-06-22T10:15:36;44.60;;;32.00;;
21036;SDS011;10677;50.942;4.028;2023-06-22T10:18:02;49.45;;;34.20;;
21036;SDS011;10677;50.942;4.028;2023-06-22T10:20:29;41.80;;;32.58;;
21036;SDS011;10677;50.942;4.028;2023-06-22T10:22:55;50.10;;;35.95;;
21036;SDS011;10677;50.942;4.028;2023-06-22T10:25:21;49.95;;;37.40;;
21036;SDS011;10677;50.942;4.028;2023-06-22T10:27:47;36.53;;;29.42;;
21036;SDS011;10677;50.942;4.028;2023-06-22T10:30:13;34.35;;;27.95;;
21036;SDS011;10677;50.942;4.028;2023-06-22T10:32:39;34.97;;;27.00;;
21036;SDS011;10677;50.942;4.028;2023-06-22T10:35:06;34.42;;;26.92;;
21036;SDS011;10677;50.942;4.028;2023-06-22T10:37:32;37.75;;;28.25;;
21036;SDS011;10677;50.942;4.028;2023-06-22T10:39:59;34.83;;;25.20;;
21036;SDS011;10677;50.942;4.028;2023-06-22T10:42:24;26.33;;;20.98;;
21036;SDS011;10677;50.942;4.028;2023-06-22T10:44:50;23.20;;;19.35;;
21036;SDS011;10677;50.942;4.028;2023-06-22T10:47:16;27.23;;;23.25;;
21036;SDS011;10677;50.942;4.028;2023-06-22T10:49:41;26.60;;;22.27;;
21036;SDS011;10677;50.942;4.028;2023-06-22T10:52:08;29.45;;;22.83;;
21036;SDS011;10677;50.942;4.028;2023-06-22T10:54:34;30.13;;;23.95;;
21036;SDS011;10677;50.942;4.028;2023-06-22T10:57:01;35.00;;;25.10;;
21036;SDS011;10677;50.942;4.028;2023-06-22T10:59:28;29.80;;;23.77;;
21036;SDS011;10677;50.942;4.028;2023-06-22T11:01:57;31.58;;;25.05;;
21036;SDS011;10677;50.942;4.028;2023-06-22T11:04:24;31.92;;;22.60;;
21036;SDS011;10677;50.942;4.028;2023-06-22T11:06:50;26.92;;;21.88;;
21036;SDS011;10677;50.942;4.028;2023-06-22T11:09:16;30.45;;;24.38;;
21036;SDS011;10677;50.942;4.028;2023-06-22T11:11:46;29.83;;;22.60;;
21036;SDS011;10677;50.942;4.028;2023-06-22T11:14:13;25.73;;;22.40;;
21036;SDS011;10677;50.942;4.028;2023-06-22T11:16:39;31.67;;;24.20;;
21036;SDS011;10677;50.942;4.028;2023-06-22T11:19:05;33.03;;;25.65;;
21036;SDS011;10677;50.942;4.028;2023-06-22T11:21:31;31.15;;;25.58;;
21036;SDS011;10677;50.942;4.028;2023-06-22T11:23:57;32.53;;;26.17;;
21036;SDS011;10677;50.942;4.028;2023-06-22T11:26:23;33.55;;;27.40;;
21036;SDS011;10677;50.942;4.028;2023-06-22T11:28:52;35.75;;;26.63;;
21036;SDS011;10677;50.942;4.028;2023-06-22T11:31:17;38.22;;;27.63;;
21036;SDS011;10677;50.942;4.028;2023-06-22T11:33:43;34.72;;;27.80;;
21036;SDS011;10677;50.942;4.028;2023-06-22T11:36:11;36.35;;;27.48;;
21036;SDS011;10677;50.942;4.028;2023-06-22T11:38:37;32.05;;;23.90;;
21036;SDS011;10677;50.942;4.028;2023-06-22T11:41:05;29.55;;;24.38;;
21036;SDS011;10677;50.942;4.028;2023-06-22T11:43:34;31.83;;;24.15;;
21036;SDS011;10677;50.942;4.028;2023-06-22T11:46:03;31.13;;;23.88;;
21036;SDS011;10677;50.942;4.028;2023-06-22T11:48:31;27.90;;;20.77;;
21036;SDS011;10677;50.942;4.028;2023-06-22T11:50:57;22.95;;;19.75;;
21036;SDS011;10677;50.942;4.028;2023-06-22T11:53:24;23.42;;;20.40;;
21036;SDS011;10677;50.942;4.028;2023-06-22T11:55:51;23.77;;;20.05;;
21036;SDS011;10677;50.942;4.028;2023-06-22T11:58:20;26.30;;;19.33;;
21036;SDS011;10677;50.942;4.028;2023-06-22T12:00:46;21.83;;;18.23;;
21036;SDS011;10677;50.942;4.028;2023-06-22T12:03:11;21.55;;;18.33;;
21036;SDS011;10677;50.942;4.028;2023-06-22T12:05:37;22.88;;;18.60;;
21036;SDS011;10677;50.942;4.028;2023-06-22T12:08:03;24.48;;;19.30;;
21036;SDS011;10677;50.942;4.028;2023-06-22T12:10:29;22.33;;;18.45;;
21036;SDS011;10677;50.942;4.028;2023-06-22T12:12:55;25.40;;;17.85;;
21036;SDS011;10677;50.942;4.028;2023-06-22T12:15:24;25.67;;;20.02;;
21036;SDS011;10677;50.942;4.028;2023-06-22T12:17:50;26.20;;;19.98;;
21036;SDS011;10677;50.942;4.028;2023-06-22T12:20:16;26.73;;;21.05;;
21036;SDS011;10677;50.942;4.028;2023-06-22T12:22:43;23.65;;;19.95;;
21036;SDS011;10677;50.942;4.028;2023-06-22T12:25:09;25.30;;;21.23;;
21036;SDS011;10677;50.942;4.028;2023-06-22T12:27:35;24.55;;;21.60;;
21036;SDS011;10677;50.942;4.028;2023-06-22T12:30:02;28.02;;;23.65;;
21036;SDS011;10677;50.942;4.028;2023-06-22T12:32:29;31.55;;;24.10;;
21036;SDS011;10677;50.942;4.028;2023-06-22T12:34:55;28.65;;;24.42;;
21036;SDS011;10677;50.942;4.028;2023-06-22T12:37:21;31.13;;;23.83;;
21036;SDS011;10677;50.942;4.028;2023-06-22T12:39:48;30.05;;;22.63;;
21036;SDS011;10677;50.942;4.028;2023-06-22T12:42:16;33.28;;;23.83;;
21036;SDS011;10677;50.942;4.028;2023-06-22T12:44:42;28.27;;;21.02;;
21036;SDS011;10677;50.942;4.028;2023-06-22T12:47:08;30.60;;;21.77;;
21036;SDS011;10677;50.942;4.028;2023-06-22T12:49:35;29.10;;;21.98;;
21036;SDS011;10677;50.942;4.028;2023-06-22T12:52:01;33.10;;;22.65;;
21036;SDS011;10677;50.942;4.028;2023-06-22T12:54:27;30.52;;;21.90;;
21036;SDS011;10677;50.942;4.028;2023-06-22T12:56:54;27.48;;;19.63;;
21036;SDS011;10677;50.942;4.028;2023-06-22T12:59:20;27.17;;;21.00;;
21036;SDS011;10677;50.942;4.028;2023-06-22T13:01:45;27.83;;;20.50;;
21036;SDS011;10677;50.942;4.028;2023-06-22T13:04:11;34.25;;;22.38;;
21036;SDS011;10677;50.942;4.028;2023-06-22T13:06:40;34.80;;;21.92;;
21036;SDS011;10677;50.942;4.028;2023-06-22T13:09:12;37.03;;;22.80;;
21036;SDS011;10677;50.942;4.028;2023-06-22T13:11:38;30.63;;;22.50;;
21036;SDS011;10677;50.942;4.028;2023-06-22T13:14:04;33.42;;;23.80;;
21036;SDS011;10677;50.942;4.028;2023-06-22T13:16:29;29.13;;;22.88;;
21036;SDS011;10677;50.942;4.028;2023-06-22T13:18:55;32.13;;;23.38;;
21036;SDS011;10677;50.942;4.028;2023-06-22T13:21:21;31.52;;;23.58;;
21036;SDS011;10677;50.942;4.028;2023-06-22T13:23:46;29.20;;;22.58;;
21036;SDS011;10677;50.942;4.028;2023-06-22T13:26:12;28.73;;;23.65;;
21036;SDS011;10677;50.942;4.028;2023-06-22T13:28:38;30.70;;;24.98;;
21036;SDS011;10677;50.942;4.028;2023-06-22T13:31:03;33.22;;;25.00;;
21036;SDS011;10677;50.942;4.028;2023-06-22T13:33:29;34.17;;;26.30;;
21036;SDS011;10677;50.942;4.028;2023-06-22T13:35:55;39.92;;;27.05;;
21036;SDS011;10677;50.942;4.028;2023-06-22T13:38:20;38.08;;;26.17;;
21036;SDS011;10677;50.942;4.028;2023-06-22T13:40:47;39.63;;;29.52;;
21036;SDS011;10677;50.942;4.028;2023-06-22T13:43:13;38.13;;;27.27;;
21036;SDS011;10677;50.942;4.028;2023-06-22T13:45:39;39.47;;;28.63;;
21036;SDS011;10677;50.942;4.028;2023-06-22T13:48:05;37.47;;;28.20;;
21036;SDS011;10677;50.942;4.028;2023-06-22T13:50:31;37.75;;;28.75;;
21036;SDS011;10677;50.942;4.028;2023-06-22T13:52:57;36.05;;;27.27;;
21036;SDS011;10677;50.942;4.028;2023-06-22T13:55:23;38.92;;;29.75;;
21036;SDS011;10677;50.942;4.028;2023-06-22T13:57:48;35.80;;;29.30;;
21036;SDS011;10677;50.942;4.028;2023-06-22T14:00:16;36.90;;;27.90;;
21036;SDS011;10677;50.942;4.028;2023-06-22T14:02:42;35.75;;;27.83;;
21036;SDS011;10677;50.942;4.028;2023-06-22T14:05:08;36.58;;;26.77;;
21036;SDS011;10677;50.942;4.028;2023-06-22T14:07:34;39.10;;;27.65;;
21036;SDS011;10677;50.942;4.028;2023-06-22T14:10:00;36.35;;;27.42;;
21036;SDS011;10677;50.942;4.028;2023-06-22T14:12:26;38.15;;;27.35;;
21036;SDS011;10677;50.942;4.028;2023-06-22T14:14:51;37.80;;;27.13;;
21036;SDS011;10677;50.942;4.028;2023-06-22T14:17:17;42.40;;;28.85;;
21036;SDS011;10677;50.942;4.028;2023-06-22T14:19:48;38.15;;;28.55;;
21036;SDS011;10677;50.942;4.028;2023-06-22T14:22:15;39.95;;;29.38;;
21036;SDS011;10677;50.942;4.028;2023-06-22T14:24:40;38.40;;;28.48;;
21036;SDS011;10677;50.942;4.028;2023-06-22T14:27:06;36.92;;;28.60;;
21036;SDS011;10677;50.942;4.028;2023-06-22T14:29:33;39.75;;;29.20;;
21036;SDS011;10677;50.942;4.028;2023-06-22T14:31:59;39.35;;;28.85;;
21036;SDS011;10677;50.942;4.028;2023-06-22T14:34:25;39.20;;;30.30;;
21036;SDS011;10677;50.942;4.028;2023-06-22T14:36:51;41.38;;;31.40;;
21036;SDS011;10677;50.942;4.028;2023-06-22T14:39:16;42.40;;;31.90;;
21036;SDS011;10677;50.942;4.028;2023-06-22T14:41:42;44.60;;;33.78;;
21036;SDS011;10677;50.942;4.028;2023-06-22T14:44:07;42.85;;;32.67;;